MYGF METAR and TAF weather

Enter ICAO airport designator
Station Type Date Time Source
MYGF METAR 2021/03/02 13:00 UTC NOAA

MYGF 021300Z AUTO 18004KT //// R24/P2000N // NCD 24/21 A3007


Station Type Date Time Source
MYGF Decoded METAR 2021/03/02 13:00 UTC NOAA

Freeport, Grand Bahama, Bahamas, The (MYGF) 26-33N 078-42W 11M
Mar 02, 2021 - 08:00 AM EST / 2021.03.02 1300 UTC
Wind: from the S (180 degrees) at 5 MPH (4 KT):0
Temperature: 75 F (24 C)
Dew Point: 69 F (21 C)
Relative Humidity: 83%
Pressure (altimeter): 30.07 in. Hg (1018 hPa)
ob: MYGF 021300Z AUTO 18004KT //// R24/P2000N // NCD 24/21 A3007
cycle: 13

Station Type Date Time Source
MYGF TAF 2021/03/02 12:58 UTC NOAA

TAF MYGF 021000Z 0212/0312 20006KT 9999 FEW018 SCT030 BKN200 PROB40
TEMPO 0218/0300 9000 SHRA FEW016CB BKN030
BECMG 0306/0308 19015KT

Example: see airport list